createdAt,value
2019-01-18T00:00:44.924Z,3.13
2019-01-18T00:03:15.281Z,2.60
2019-01-18T00:05:44.709Z,3.03
2019-01-18T00:08:14.010Z,3.23
2019-01-18T00:10:43.282Z,3.10
2019-01-18T00:13:13.559Z,3.07
2019-01-18T00:15:42.816Z,3.17
2019-01-18T00:18:12.080Z,3.00
2019-01-18T00:20:41.340Z,2.90
2019-01-18T00:23:10.613Z,2.93
2019-01-18T00:25:39.878Z,2.70
2019-01-18T00:28:09.152Z,3.17
2019-01-18T00:30:38.496Z,3.10
2019-01-18T00:33:07.772Z,3.40
2019-01-18T00:35:37.025Z,2.87
2019-01-18T00:38:06.377Z,2.90
2019-01-18T00:40:36.018Z,2.90
2019-01-18T00:43:05.356Z,3.23
2019-01-18T00:45:34.619Z,3.13
2019-01-18T00:48:04.068Z,3.20
2019-01-18T00:50:34.371Z,3.73
2019-01-18T00:53:03.908Z,3.17
2019-01-18T00:55:33.186Z,3.00
2019-01-18T00:58:02.447Z,2.97
2019-01-18T01:00:31.712Z,4.07
2019-01-18T01:03:00.983Z,3.73
2019-01-18T01:05:30.325Z,3.73
2019-01-18T01:07:59.910Z,3.77
2019-01-18T01:10:29.310Z,3.60
2019-01-18T01:12:58.675Z,3.47
2019-01-18T01:15:28.023Z,4.10
2019-01-18T01:17:57.293Z,3.60
2019-01-18T01:20:26.570Z,3.13
2019-01-18T01:22:55.833Z,2.83
2019-01-18T01:25:25.442Z,3.33
2019-01-18T01:27:54.785Z,3.47
2019-01-18T01:30:25.405Z,3.30
2019-01-18T01:32:54.744Z,3.53
2019-01-18T01:35:24.088Z,3.37
2019-01-18T01:37:53.451Z,3.77
2019-01-18T01:40:24.840Z,3.87
2019-01-18T01:42:54.604Z,3.23
2019-01-18T01:45:23.865Z,3.53
2019-01-18T01:47:53.267Z,3.90
2019-01-18T01:50:26.181Z,3.67
2019-01-18T01:52:55.793Z,3.50
2019-01-18T01:55:25.121Z,3.20
2019-01-18T01:57:54.468Z,3.87
2019-01-18T02:00:25.672Z,3.57
2019-01-18T02:02:54.949Z,3.20
2019-01-18T02:05:24.212Z,3.40
2019-01-18T02:07:53.486Z,3.37
2019-01-18T02:10:22.744Z,3.13
2019-01-18T02:12:52.085Z,3.13
2019-01-18T02:15:23.386Z,3.23
2019-01-18T02:17:52.728Z,3.10
2019-01-18T02:20:23.038Z,2.60
2019-01-18T02:22:52.762Z,2.87
2019-01-18T02:25:22.164Z,2.80
2019-01-18T02:27:51.656Z,2.60
2019-01-18T02:30:23.479Z,2.93
2019-01-18T02:32:53.153Z,2.97
2019-01-18T02:35:22.427Z,2.80
2019-01-18T02:37:51.765Z,3.23
2019-01-18T02:40:21.264Z,2.80
2019-01-18T02:42:50.616Z,2.60
2019-01-18T02:45:22.730Z,3.23
2019-01-18T02:47:52.073Z,2.77
2019-01-18T02:50:21.337Z,2.80
2019-01-18T02:52:50.681Z,3.60
2019-01-18T02:55:19.943Z,3.37
2019-01-18T02:57:49.300Z,3.30
2019-01-18T03:00:22.919Z,3.23
2019-01-18T03:02:52.258Z,3.47
2019-01-18T03:05:24.091Z,3.17
2019-01-18T03:07:53.489Z,3.60
2019-01-18T03:10:28.100Z,2.93
2019-01-18T03:12:57.377Z,3.70
2019-01-18T03:15:26.655Z,4.50
2019-01-18T03:17:55.920Z,3.50
2019-01-18T03:20:25.210Z,4.00
2019-01-18T03:22:54.472Z,3.97
2019-01-18T03:25:25.581Z,3.70
2019-01-18T03:27:54.916Z,4.17
2019-01-18T03:30:24.263Z,4.30
2019-01-18T03:32:53.519Z,4.63
2019-01-18T03:35:23.268Z,4.10
2019-01-18T03:37:53.602Z,4.20
2019-01-18T03:40:22.884Z,3.83
2019-01-18T03:42:52.158Z,4.47
2019-01-18T03:45:22.490Z,4.10
2019-01-18T03:47:52.088Z,4.70
2019-01-18T03:50:23.975Z,4.27
2019-01-18T03:52:53.241Z,20.80
2019-01-18T03:55:23.613Z,10.77
2019-01-18T03:57:52.948Z,5.50
2019-01-18T04:00:27.021Z,5.00
2019-01-18T04:02:56.279Z,5.13
2019-01-18T04:05:25.643Z,5.90
2019-01-18T04:07:55.100Z,6.27
2019-01-18T04:10:24.761Z,6.50
2019-01-18T04:12:54.009Z,5.03
2019-01-18T04:15:24.301Z,4.93
2019-01-18T04:17:53.654Z,5.10
2019-01-18T04:20:23.392Z,6.10
2019-01-18T04:22:52.809Z,7.77
2019-01-18T04:25:23.736Z,8.57
2019-01-18T04:27:53.004Z,5.50
2019-01-18T04:30:23.821Z,5.67
2019-01-18T04:32:53.073Z,4.60
2019-01-18T04:35:22.399Z,5.10
2019-01-18T04:37:51.662Z,8.30
2019-01-18T04:40:25.840Z,7.90
2019-01-18T04:42:55.639Z,5.33
2019-01-18T04:45:24.927Z,5.87
2019-01-18T04:47:54.453Z,5.30
2019-01-18T04:50:26.594Z,4.70
2019-01-18T04:52:56.222Z,4.10
2019-01-18T04:55:25.500Z,4.73
2019-01-18T04:57:54.831Z,4.80
2019-01-18T05:00:28.558Z,4.87
2019-01-18T05:02:58.066Z,4.53
2019-01-18T05:05:27.833Z,4.50
2019-01-18T05:07:57.492Z,4.40
2019-01-18T05:10:28.321Z,4.10
2019-01-18T05:12:57.929Z,5.53
2019-01-18T05:15:29.830Z,5.20
2019-01-18T05:17:59.172Z,5.10
2019-01-18T05:20:28.514Z,5.37
2019-01-18T05:22:58.059Z,4.70
2019-01-18T05:25:27.313Z,4.53
2019-01-18T05:27:56.592Z,5.40
2019-01-18T05:30:28.430Z,5.20
2019-01-18T05:32:57.772Z,5.40
2019-01-18T05:35:27.023Z,5.10
2019-01-18T05:37:56.369Z,4.90
2019-01-18T05:40:25.648Z,5.37
2019-01-18T05:42:54.919Z,4.73
2019-01-18T05:45:24.182Z,5.30
2019-01-18T05:47:53.483Z,4.63
2019-01-18T05:50:25.428Z,5.00
2019-01-18T05:52:54.778Z,4.77
2019-01-18T05:55:24.057Z,5.10
2019-01-18T05:57:53.346Z,5.30
2019-01-18T06:00:35.952Z,4.80
2019-01-18T06:03:06.086Z,4.73
2019-01-18T06:05:38.253Z,4.90
2019-01-18T06:08:07.709Z,5.03
2019-01-18T06:10:37.045Z,5.07
2019-01-18T06:13:06.326Z,5.63
2019-01-18T06:15:35.598Z,4.97
2019-01-18T06:18:04.942Z,5.70
2019-01-18T06:20:34.205Z,5.17
2019-01-18T06:23:03.472Z,5.27
2019-01-18T06:25:32.741Z,5.67
2019-01-18T06:28:02.289Z,5.30
2019-01-18T06:30:31.630Z,5.87
2019-01-18T06:33:00.909Z,5.80
2019-01-18T06:35:30.175Z,6.37
2019-01-18T06:38:02.405Z,5.13
2019-01-18T06:40:31.849Z,6.03
2019-01-18T06:43:01.133Z,6.00
2019-01-18T06:45:31.478Z,5.50
2019-01-18T06:48:00.734Z,6.20
2019-01-18T06:50:30.010Z,9.60
2019-01-18T06:52:59.285Z,7.80
2019-01-18T06:55:28.557Z,9.80
2019-01-18T06:57:58.102Z,18.40
2019-01-18T07:00:30.049Z,38.97
2019-01-18T07:02:59.403Z,28.53
2019-01-18T07:05:28.664Z,10.13
2019-01-18T07:07:57.966Z,14.37
2019-01-18T07:10:28.265Z,23.97
2019-01-18T07:12:57.541Z,21.17
2019-01-18T07:15:26.811Z,9.83
2019-01-18T07:17:56.093Z,7.23
2019-01-18T07:20:25.364Z,10.07
2019-01-18T07:22:54.716Z,8.30
2019-01-18T07:25:28.597Z,7.10
2019-01-18T07:27:58.122Z,7.20
2019-01-18T07:30:32.793Z,6.40
2019-01-18T07:33:02.140Z,6.90
2019-01-18T07:35:31.415Z,6.53
2019-01-18T07:38:00.686Z,6.87
2019-01-18T07:40:29.973Z,7.33
2019-01-18T07:42:59.245Z,6.83
2019-01-18T07:45:30.260Z,8.83
2019-01-18T07:47:59.528Z,8.60
2019-01-18T07:50:28.805Z,8.30
2019-01-18T07:52:58.214Z,7.80
2019-01-18T07:55:27.493Z,7.30
2019-01-18T07:57:56.765Z,7.47
2019-01-18T08:00:28.282Z,7.60
2019-01-18T08:02:57.797Z,14.93
2019-01-18T08:05:28.535Z,15.57
2019-01-18T08:07:58.099Z,12.03
2019-01-18T08:10:27.445Z,9.70
2019-01-18T08:12:56.704Z,7.47
2019-01-18T08:15:27.424Z,11.00
2019-01-18T08:17:57.512Z,12.67
2019-01-18T08:20:28.434Z,10.07
2019-01-18T08:22:58.137Z,17.00
2019-01-18T08:25:27.569Z,12.53
2019-01-18T08:27:56.848Z,11.20
2019-01-18T08:30:30.245Z,11.83
2019-01-18T08:32:59.582Z,9.57
2019-01-18T08:35:29.183Z,7.40
2019-01-18T08:37:58.526Z,9.60
2019-01-18T08:40:30.140Z,10.70
2019-01-18T08:42:59.400Z,9.97
2019-01-18T08:45:40.545Z,10.67
2019-01-18T08:48:09.876Z,11.07
2019-01-18T08:50:39.895Z,10.80
2019-01-18T08:53:09.160Z,8.33
2019-01-18T08:55:38.437Z,7.73
2019-01-18T08:58:08.025Z,7.37
2019-01-18T09:00:37.417Z,8.07
2019-01-18T09:03:07.747Z,9.60
2019-01-18T09:05:37.032Z,10.13
2019-01-18T09:08:06.304Z,10.97
2019-01-18T09:10:36.913Z,10.20
2019-01-18T09:13:06.485Z,9.33
2019-01-18T09:15:35.768Z,9.03
2019-01-18T09:18:05.482Z,8.23
2019-01-18T09:20:34.781Z,10.90
2019-01-18T09:23:04.402Z,8.00
2019-01-18T09:25:33.680Z,10.27
2019-01-18T09:28:02.943Z,8.50
2019-01-18T09:30:34.150Z,7.43
2019-01-18T09:33:04.949Z,6.90
2019-01-18T09:35:35.069Z,7.00
2019-01-18T09:38:06.273Z,7.67
2019-01-18T09:40:35.840Z,12.00
2019-01-18T09:43:05.134Z,10.83
2019-01-18T09:45:34.662Z,20.90
2019-01-18T09:48:04.473Z,35.63
2019-01-18T09:50:33.841Z,15.80
2019-01-18T09:53:05.456Z,14.13
2019-01-18T09:55:35.566Z,13.57
2019-01-18T09:58:05.184Z,13.93
2019-01-18T10:00:36.697Z,13.03
2019-01-18T10:03:06.124Z,12.07
2019-01-18T10:05:35.384Z,9.87
2019-01-18T10:08:04.739Z,10.90
2019-01-18T10:10:34.280Z,11.27
2019-01-18T10:13:03.944Z,8.47
2019-01-18T10:15:38.722Z,10.00
2019-01-18T10:18:08.141Z,7.87
2019-01-18T10:20:37.393Z,6.83
2019-01-18T10:23:06.741Z,5.83
2019-01-18T10:25:36.009Z,8.20
2019-01-18T10:28:05.747Z,6.93
2019-01-18T10:30:35.098Z,5.80
2019-01-18T10:33:04.484Z,5.37
2019-01-18T10:35:34.906Z,5.97
2019-01-18T10:38:04.398Z,5.67
2019-01-18T10:40:33.673Z,5.23
2019-01-18T10:43:02.941Z,5.90
2019-01-18T10:45:32.438Z,6.30
2019-01-18T10:48:01.713Z,5.73
2019-01-18T10:50:32.120Z,6.47
2019-01-18T10:53:01.411Z,5.17
2019-01-18T10:55:30.668Z,4.63
2019-01-18T10:57:59.945Z,4.83
2019-01-18T11:00:31.222Z,4.17
2019-01-18T11:03:00.501Z,5.33
2019-01-18T11:05:29.776Z,11.87
2019-01-18T11:07:59.061Z,16.70
2019-01-18T11:10:28.332Z,7.63
2019-01-18T11:12:57.611Z,5.60
2019-01-18T11:15:28.856Z,10.70
2019-01-18T11:17:58.211Z,53.83
2019-01-18T11:20:30.606Z,76.37
2019-01-18T11:23:00.561Z,26.30
2019-01-18T11:25:31.984Z,10.90
2019-01-18T11:28:01.517Z,4.30
2019-01-18T11:30:30.778Z,4.87
2019-01-18T11:33:00.127Z,13.67
2019-01-18T11:35:29.385Z,9.13
2019-01-18T11:37:58.975Z,6.17
2019-01-18T11:40:28.262Z,5.77
2019-01-18T11:42:57.516Z,4.67
2019-01-18T11:45:26.793Z,4.70
2019-01-18T11:47:56.056Z,5.40
2019-01-18T11:50:27.446Z,5.50
2019-01-18T11:52:57.024Z,6.70
2019-01-18T11:55:26.321Z,8.60
2019-01-18T11:57:55.594Z,7.70
2019-01-18T12:00:27.981Z,8.00
2019-01-18T12:02:57.928Z,7.37
2019-01-18T12:05:27.269Z,6.30
2019-01-18T12:07:56.571Z,8.00
2019-01-18T12:10:30.900Z,11.93
2019-01-18T12:13:00.173Z,20.37
2019-01-18T12:15:29.639Z,7.50
2019-01-18T12:17:58.913Z,6.33
2019-01-18T12:20:30.513Z,5.23
2019-01-18T12:23:00.029Z,5.20
2019-01-18T12:25:30.259Z,4.13
2019-01-18T12:28:00.492Z,3.50
2019-01-18T12:30:31.958Z,3.90
2019-01-18T12:33:01.218Z,2.33
2019-01-18T12:35:30.557Z,3.17
2019-01-18T12:37:59.833Z,3.20
2019-01-18T12:40:29.181Z,2.80
2019-01-18T12:42:58.442Z,4.30
2019-01-18T12:45:27.815Z,5.53
2019-01-18T12:47:57.073Z,6.43
2019-01-18T12:50:31.978Z,4.33
2019-01-18T12:53:01.254Z,4.80
2019-01-18T12:55:30.528Z,6.13
2019-01-18T12:57:59.865Z,5.80
2019-01-18T13:00:29.982Z,6.10
2019-01-18T13:02:59.255Z,5.00
2019-01-18T13:05:34.943Z,10.33
2019-01-18T13:08:04.324Z,7.27
2019-01-18T13:10:33.689Z,17.43
2019-01-18T13:13:02.953Z,21.80
2019-01-18T13:15:41.296Z,8.87
2019-01-18T13:18:10.738Z,6.57
2019-01-18T13:20:40.021Z,7.13
2019-01-18T13:23:09.311Z,6.67
2019-01-18T13:25:38.577Z,6.33
2019-01-18T13:28:07.840Z,5.27
2019-01-18T13:30:37.146Z,6.43
2019-01-18T13:33:06.416Z,6.40
2019-01-18T13:35:35.694Z,6.53
2019-01-18T13:38:05.026Z,5.90
2019-01-18T13:40:34.295Z,6.47
2019-01-18T13:43:03.558Z,6.67
2019-01-18T13:45:32.849Z,6.70
2019-01-18T13:48:02.124Z,6.40
2019-01-18T13:50:31.768Z,6.20
2019-01-18T13:53:01.193Z,6.37
2019-01-18T13:55:31.635Z,7.40
2019-01-18T13:58:01.158Z,23.90
2019-01-18T14:00:30.449Z,11.97
2019-01-18T14:03:00.086Z,16.70
2019-01-18T14:05:29.448Z,48.70
2019-01-18T14:07:59.083Z,16.23
2019-01-18T14:10:32.898Z,12.43
2019-01-18T14:13:02.258Z,10.23
2019-01-18T14:15:31.730Z,17.30
2019-01-18T14:18:01.080Z,5.73
2019-01-18T14:20:30.512Z,6.30
2019-01-18T14:22:59.861Z,4.60
2019-01-18T14:25:29.207Z,5.87
2019-01-18T14:27:58.557Z,7.03
2019-01-18T14:30:28.555Z,6.37
2019-01-18T14:32:58.085Z,5.00
2019-01-18T14:35:27.473Z,4.23
2019-01-18T14:37:56.855Z,5.63
2019-01-18T14:40:26.127Z,5.83
2019-01-18T14:42:55.663Z,6.43
2019-01-18T14:45:28.967Z,6.00
2019-01-18T14:47:58.312Z,6.13
2019-01-18T14:50:27.723Z,4.10
2019-01-18T14:52:57.232Z,4.67
2019-01-18T14:55:26.552Z,4.40
2019-01-18T14:57:56.114Z,4.53
2019-01-18T15:00:32.454Z,4.50
2019-01-18T15:03:02.463Z,5.13
2019-01-18T15:05:32.126Z,4.80
2019-01-18T15:08:01.760Z,4.90
2019-01-18T15:10:31.244Z,7.10
2019-01-18T15:13:11.548Z,4.70
2019-01-18T15:15:40.847Z,4.70
2019-01-18T15:18:10.171Z,5.17
2019-01-18T15:20:39.541Z,9.70
2019-01-18T15:23:08.977Z,7.70
2019-01-18T15:25:38.256Z,6.00
2019-01-18T15:28:07.528Z,6.87
2019-01-18T15:30:36.875Z,4.93
2019-01-18T15:33:09.287Z,3.70
2019-01-18T15:35:37.571Z,3.53
2019-01-18T15:38:07.205Z,8.70
2019-01-18T15:40:42.949Z,16.30
2019-01-18T15:43:13.930Z,13.53
2019-01-18T15:45:43.205Z,9.33
2019-01-18T15:48:12.556Z,14.20
2019-01-18T15:50:41.853Z,8.40
2019-01-18T15:53:11.097Z,4.73
2019-01-18T15:55:40.372Z,5.83
2019-01-18T15:58:09.702Z,4.00
2019-01-18T16:00:40.913Z,4.77
2019-01-18T16:03:15.919Z,6.10
2019-01-18T16:05:41.440Z,22.50
2019-01-18T16:08:10.782Z,14.03
2019-01-18T16:10:40.078Z,5.03
2019-01-18T16:13:09.328Z,4.07
2019-01-18T16:15:47.381Z,9.30
2019-01-18T16:18:22.607Z,9.03
2019-01-18T16:20:52.225Z,8.28
2019-01-18T16:23:23.492Z,10.27
2019-01-18T16:25:52.769Z,6.50
2019-01-18T16:28:22.045Z,5.53
2019-01-18T16:30:51.306Z,6.13
2019-01-18T16:33:23.533Z,5.73
2019-01-18T16:35:52.811Z,5.23
2019-01-18T16:38:22.077Z,4.20
2019-01-18T16:40:51.345Z,3.97
2019-01-18T16:43:23.755Z,4.03
2019-01-18T16:45:53.020Z,4.13
2019-01-18T16:48:22.297Z,7.23
2019-01-18T16:50:51.591Z,6.60
2019-01-18T16:53:20.925Z,7.27
2019-01-18T16:55:51.041Z,25.90
2019-01-18T16:58:20.323Z,21.83
2019-01-18T17:00:52.715Z,10.27
2019-01-18T17:03:21.976Z,8.77
2019-01-18T17:05:51.255Z,10.70
2019-01-18T17:08:20.531Z,9.23
2019-01-18T17:10:49.843Z,14.57
2019-01-18T17:13:19.638Z,9.97
2019-01-18T17:15:48.920Z,18.33
2019-01-18T17:18:19.802Z,10.33
2019-01-18T17:20:49.141Z,5.90
2019-01-18T17:23:18.422Z,7.20
2019-01-18T17:25:47.696Z,7.90
2019-01-18T17:28:17.054Z,9.13
2019-01-18T17:30:47.858Z,6.53
2019-01-18T17:33:17.122Z,8.30
2019-01-18T17:35:55.773Z,8.87
2019-01-18T17:38:33.986Z,8.80
2019-01-18T17:41:19.155Z,11.60
2019-01-18T17:44:05.852Z,11.07
2019-01-18T17:46:41.225Z,11.33
2019-01-18T17:49:25.729Z,17.80
2019-01-18T17:52:00.848Z,19.83
2019-01-18T17:54:36.375Z,18.03
2019-01-18T17:57:11.450Z,9.43
2019-01-18T17:59:58.736Z,9.77
2019-01-18T18:02:36.786Z,11.03
2019-01-18T18:05:33.919Z,9.63
2019-01-18T18:08:24.484Z,10.60
2019-01-18T18:11:13.583Z,13.57
2019-01-18T18:14:14.712Z,14.63
2019-01-18T18:17:09.799Z,15.60
2019-01-18T18:19:54.199Z,14.57
2019-01-18T18:23:00.163Z,11.70
2019-01-18T18:26:07.701Z,14.53
2019-01-18T18:28:55.028Z,12.33
2019-01-18T18:31:30.351Z,10.47
2019-01-18T18:34:19.145Z,9.63
2019-01-18T18:37:00.697Z,8.90
2019-01-18T18:39:50.481Z,9.87
2019-01-18T18:42:37.784Z,9.07
2019-01-18T18:45:22.885Z,8.40
2019-01-18T18:48:10.738Z,9.90
2019-01-18T18:50:59.866Z,10.50
2019-01-18T18:54:04.181Z,8.27
2019-01-18T18:56:45.190Z,6.90
2019-01-18T18:59:33.980Z,7.93
2019-01-18T19:02:09.570Z,8.17
2019-01-18T19:04:53.960Z,9.80
2019-01-18T19:07:26.386Z,9.57
2019-01-18T19:10:19.660Z,11.57
2019-01-18T19:13:14.057Z,11.63
2019-01-18T19:16:01.885Z,8.27
2019-01-18T19:19:01.454Z,7.90
2019-01-18T19:21:33.803Z,7.53
2019-01-18T19:24:21.258Z,8.60
2019-01-18T19:26:56.320Z,10.33
2019-01-18T19:29:43.966Z,8.43
2019-01-18T19:32:31.017Z,9.43
2019-01-18T19:35:03.362Z,9.97
2019-01-18T19:37:38.526Z,6.93
2019-01-18T19:40:20.073Z,7.63
2019-01-18T19:42:58.321Z,8.07
2019-01-18T19:45:42.671Z,9.67
2019-01-18T19:48:25.082Z,11.13
2019-01-18T19:51:03.066Z,14.63
2019-01-18T19:53:43.551Z,16.30
2019-01-18T19:56:27.873Z,14.63
2019-01-18T19:59:32.495Z,13.10
2019-01-18T20:02:10.683Z,10.73
2019-01-18T20:04:49.225Z,10.90
2019-01-18T20:07:38.301Z,13.67
2019-01-18T20:10:42.766Z,15.37
2019-01-18T20:13:48.231Z,14.10
2019-01-18T20:16:20.708Z,13.80
2019-01-18T20:19:10.817Z,11.17
2019-01-18T20:22:01.706Z,10.90
2019-01-18T20:24:45.999Z,18.97
2019-01-18T20:27:33.624Z,13.27
2019-01-18T20:30:33.516Z,11.80
2019-01-18T20:33:24.104Z,14.27
2019-01-18T20:36:08.585Z,15.87
2019-01-18T20:38:59.104Z,16.13
2019-01-18T20:41:49.399Z,19.30
2019-01-18T20:44:21.957Z,11.50
2019-01-18T20:47:20.143Z,13.60
2019-01-18T20:50:01.499Z,13.77
2019-01-18T20:52:46.051Z,11.67
2019-01-18T20:55:27.224Z,10.60
2019-01-18T20:58:08.254Z,10.43
2019-01-18T21:00:46.520Z,14.67
2019-01-18T21:03:23.252Z,12.90
2019-01-18T21:05:55.671Z,10.77
2019-01-18T21:08:40.011Z,10.60
2019-01-18T21:11:24.037Z,13.93
2019-01-18T21:13:56.369Z,10.77
2019-01-18T21:16:38.577Z,11.03
2019-01-18T21:19:20.209Z,9.10
2019-01-18T21:22:04.778Z,9.80
2019-01-18T21:24:49.485Z,9.77
2019-01-18T21:27:36.810Z,9.33
2019-01-18T21:30:21.509Z,8.73
2019-01-18T21:33:05.895Z,9.17
2019-01-18T21:35:47.146Z,11.33
2019-01-18T21:38:22.214Z,9.93
2019-01-18T21:40:59.778Z,13.03
2019-01-18T21:43:51.826Z,33.80
2019-01-18T21:46:24.204Z,39.20
2019-01-18T21:48:59.305Z,25.23
2019-01-18T21:51:49.509Z,27.43
2019-01-18T21:54:24.599Z,17.77
2019-01-18T21:57:00.225Z,14.73
2019-01-18T21:59:41.428Z,14.70
2019-01-18T22:02:22.705Z,12.40
2019-01-18T22:04:55.123Z,10.33
2019-01-18T22:07:39.438Z,10.10
2019-01-18T22:10:17.999Z,11.03
2019-01-18T22:13:11.244Z,10.57
2019-01-18T22:15:43.684Z,12.30
2019-01-18T22:18:35.703Z,11.30
2019-01-18T22:21:20.298Z,9.87
2019-01-18T22:23:58.233Z,11.30
2019-01-18T22:26:33.342Z,11.53
2019-01-18T22:29:08.353Z,13.87
2019-01-18T22:31:46.310Z,11.23
2019-01-18T22:34:24.419Z,10.77
2019-01-18T22:37:05.772Z,10.47
2019-01-18T22:39:44.011Z,10.53
2019-01-18T22:42:25.427Z,9.63
2019-01-18T22:45:00.526Z,10.47
2019-01-18T22:47:57.096Z,11.70
2019-01-18T22:50:35.315Z,11.00
2019-01-18T22:53:25.833Z,8.90
2019-01-18T22:56:09.326Z,10.80
2019-01-18T22:58:50.917Z,12.03
2019-01-18T23:01:38.391Z,15.20
2019-01-18T23:04:19.400Z,21.20
2019-01-18T23:06:57.554Z,19.40
2019-01-18T23:09:50.286Z,13.93
2019-01-18T23:12:39.250Z,12.77
2019-01-18T23:15:32.460Z,11.30
2019-01-18T23:18:22.675Z,11.67
2019-01-18T23:21:06.909Z,13.77
2019-01-18T23:23:39.522Z,12.97
2019-01-18T23:26:14.488Z,11.63
2019-01-18T23:28:58.198Z,11.53
2019-01-18T23:31:39.990Z,18.07
2019-01-18T23:34:23.745Z,27.10
2019-01-18T23:36:58.762Z,55.27
2019-01-18T23:39:48.934Z,37.23
2019-01-18T23:42:36.276Z,30.80
2019-01-18T23:45:32.570Z,19.40
2019-01-18T23:48:10.632Z,17.80
2019-01-18T23:50:45.850Z,15.90
2019-01-18T23:53:24.176Z,19.23
2019-01-18T23:56:13.064Z,19.03
2019-01-18T23:59:07.729Z,16.97
